Latest Coastal Weather Observations for Mandora

IDW60701

Issued at 8:33 pm WST Sunday 9 August 2020 (issued every 10 minutes, with the page automatically refreshed every 10 minutes)

About coastal observations | Map of coastal stations | Coastal observations for WA | Marine services | Other Formats
Station Details ID: 004019 Name: MANDORA Lat: -19.74 Lon: 120.84 Height: 7.5 m
Data from the previous 72 hours. | See also: Recent months at Mandora
Date/Time
WST
Wind Sea
Height
m
Swell Vis
km
Cloud Weather Temp
°C
Press
hPa
Rain since
9am
mm
Dir  Spd
kts
Gust
kts
Height
m
Period
s
Dir
09/08:30pm NNE 3 4 - - - - - - - 17.4 1013.1 0.0
09/08:00pm NNE 3 4 - - - - - - - 17.9 1013.1 0.0
09/07:30pm NNE 5 6 - - - - - - - 19.0 1012.9 0.0
09/07:00pm NNE 4 5 - - - - - - - 19.3 1012.7 0.0
09/06:30pm N 3 4 - - - - - - - 20.2 1012.6 0.0
09/06:00pm N 4 5 - - - - - - - 21.5 1012.3 0.0
09/05:30pm N 5 7 - - - - - - - 23.4 1012.3 0.0
09/05:00pm N 7 10 - - - - - - - 25.1 1012.2 0.0
09/04:30pm N 8 11 - - - - - - - 26.2 1012.3 0.0
09/04:00pm N 9 12 - - - - - - - 27.0 1012.3 0.0
09/03:30pm N 9 14 - - - - - - - 27.6 1012.4 0.0
09/03:00pm N 10 14 - - - - - - - 27.4 1012.3 0.0
09/02:30pm N 11 18 - - - - - - - 27.6 1012.3 0.0
09/02:00pm N 12 17 - - - - - - - 27.9 1012.6 0.0
09/01:30pm N 10 15 - - - - - - - 27.6 1012.9 0.0
09/01:00pm N 10 14 - - - - - - - 26.8 1013.4 0.0
09/12:30pm N 8 13 - - - - - - - 26.6 1013.8 0.0
09/12:00pm N 9 14 - - - - - - - 25.8 1014.2 0.0
09/11:30am N 9 13 - - - - - - - 25.9 1014.4 0.0
09/11:00am NNE 9 12 - - - - - - - 25.6 1014.7 0.0
09/10:30am NNE 9 12 - - - - - - - 26.2 1014.9 0.0
09/10:00am ENE 7 12 - - - - - - - 26.2 1015.6 0.0
09/09:30am E 8 14 - - - - - - - 23.8 1015.8 0.0
09/09:00am ENE 7 12 - - - - - - - 21.3 1016.0 0.0
09/08:30am E 7 13 - - - - - - - 20.0 1015.8 0.0
09/08:00am E 7 10 - - - - - - - 17.1 1015.8 0.0
09/07:30am E 5 8 - - - - - - - 12.5 1015.6 0.0
09/07:00am E 3 5 - - - - - - - 8.1 1015.4 0.0
09/06:30am ENE 2 4 - - - - - - - 6.6 1015.0 0.0
09/06:00am E 2 4 - - - - - - - 7.3 1014.4 0.0
09/05:30am E 4 6 - - - - - - - 8.9 1014.1 0.0
09/05:00am ESE 5 7 - - - - - - - 9.8 1013.8 0.0
09/04:30am ESE 5 7 - - - - - - - 9.8 1013.6 0.0
09/04:00am ESE 5 6 - - - - - - - 10.2 1013.6 0.0
09/03:30am ESE 5 6 - - - - - - - 11.3 1013.5 0.0
09/03:00am ESE 6 8 - - - - - - - 11.9 1013.4 0.0
09/02:30am ESE 5 8 - - - - - - - 12.4 1013.3 0.0
09/02:00am ESE 6 7 - - - - - - - 12.4 1013.5 0.0
09/01:30am ESE 6 9 - - - - - - - 13.2 1013.6 0.0
09/01:00am ESE 6 8 - - - - - - - 13.1 1013.8 0.0
09/12:30am ESE 6 8 - - - - - - - 13.3 1014.1 0.0
09/12:00am SE 6 8 - - - - - - - 13.8 1014.4 0.0
 
Date/Time
WST
Wind Sea
Height
m
Swell Vis
km
Cloud Weather Temp
°C
Press
hPa
Rain since
9am
mm
Dir  Spd
kts
Gust
kts
Height
m
Period
s
Dir
08/11:30pm ESE 6 8 - - - - - - - 13.7 1014.4 0.0
08/11:00pm ESE 6 8 - - - - - - - 14.1 1014.6 0.0
08/10:30pm SE 5 7 - - - - - - - 15.1 1014.7 0.0
08/10:00pm SE 5 7 - - - - - - - 15.7 1014.9 0.0
08/09:30pm SE 6 8 - - - - - - - 15.7 1014.9 0.0
08/09:00pm SE 5 7 - - - - - - - 15.3 1015.0 0.0
08/08:30pm ESE 5 6 - - - - - - - 12.9 1015.0 0.0
08/08:00pm S 5 6 - - - - - - - 14.2 1014.9 0.0
08/07:30pm SSW 5 6 - - - - - - - 14.6 1014.7 0.0
08/07:00pm SW 4 4 - - - - - - - 16.6 1014.5 0.0
08/06:30pm WNW 3 4 - - - - - - - 17.6 1014.0 0.0
08/06:00pm NW 4 5 - - - - - - - 20.0 1013.9 0.0
08/05:30pm E 4 7 - - - - - - - 25.0 1013.4 0.0
08/05:00pm E 5 9 - - - - - - - 26.7 1013.3 0.0
08/04:30pm E 6 11 - - - - - - - 27.8 1013.3 0.0
08/04:00pm ESE 7 13 - - - - - - - 27.8 1013.1 0.0
08/03:30pm ESE 8 13 - - - - - - - 28.5 1013.0 0.0
08/03:00pm ESE 8 14 - - - - - - - 28.1 1013.1 0.0
08/02:30pm ESE 9 15 - - - - - - - 28.4 1013.4 0.0
08/02:00pm ESE 8 14 - - - - - - - 28.7 1013.6 0.0
08/01:30pm ESE 8 14 - - - - - - - 28.6 1013.9 0.0
08/01:00pm ESE 10 17 - - - - - - - 27.5 1014.3 0.0
08/12:30pm ESE 9 18 - - - - - - - 27.3 1014.9 0.0
08/12:00pm E 10 16 - - - - - - - 26.2 1015.6 0.0
08/11:30am E 11 17 - - - - - - - 25.8 1016.4 0.0
08/11:00am ESE 10 16 - - - - - - - 26.0 1017.0 0.0
08/10:30am ESE 12 18 - - - - - - - 24.1 1017.4 0.0
08/10:00am ESE 13 21 - - - - - - - 23.6 1017.6 0.0
08/09:30am E 10 17 - - - - - - - 22.7 1017.7 0.0
08/09:00am E 10 19 - - - - - - - 21.3 1017.6 0.0
08/08:30am E 10 18 - - - - - - - 19.7 1017.5 0.0
08/08:00am ESE 8 14 - - - - - - - 17.1 1017.5 0.0
08/07:30am ESE 6 10 - - - - - - - 13.5 1017.3 0.0
08/07:00am ESE 5 7 - - - - - - - 10.4 1017.1 0.0
08/06:30am ESE 4 6 - - - - - - - 10.0 1017.0 0.0
08/06:00am SE 6 7 - - - - - - - 11.5 1016.7 0.0
08/05:30am SE 6 8 - - - - - - - 12.2 1016.4 0.0
08/05:00am SE 6 9 - - - - - - - 12.3 1015.9 0.0
08/04:30am SE 7 9 - - - - - - - 12.6 1015.5 0.0
08/04:00am SE 6 8 - - - - - - - 12.8 1015.4 0.0
08/03:30am SE 7 9 - - - - - - - 12.8 1015.3 0.0
08/03:00am SE 6 8 - - - - - - - 12.2 1015.3 0.0
08/02:30am SE 5 7 - - - - - - - 11.2 1015.4 0.0
08/02:00am ESE 5 7 - - - - - - - 12.1 1015.5 0.0
08/01:30am SE 6 8 - - - - - - - 13.5 1015.7 0.0
08/01:00am ESE 6 8 - - - - - - - 14.7 1016.0 0.0
08/12:30am SE 7 11 - - - - - - - 16.0 1016.0 0.0
08/12:00am SE 8 11 - - - - - - - 16.7 1016.1 0.0
 
Date/Time
WST
Wind Sea
Height
m
Swell Vis
km
Cloud Weather Temp
°C
Press
hPa
Rain since
9am
mm
Dir  Spd
kts
Gust
kts
Height
m
Period
s
Dir
07/11:30pm SE 8 13 - - - - - - - 17.5 1015.9 0.0
07/11:00pm SE 8 13 - - - - - - - 17.6 1016.0 0.0
07/10:30pm SE 7 11 - - - - - - - 16.0 1016.1 0.0
07/10:00pm SE 5 7 - - - - - - - 14.7 1016.3 0.0
07/09:30pm SE 5 7 - - - - - - - 15.9 1016.5 0.0
07/09:00pm SE 5 7 - - - - - - - 15.7 1016.4 0.0
07/08:30pm SE 5 7 - - - - - - - 14.0 1016.4 0.0
07/08:00pm SSE 4 6 - - - - - - - 15.3 1016.2 0.0
07/07:30pm WSW 3 5 - - - - - - - 15.8 1016.0 0.0
07/07:00pm NNW 2 6 - - - - - - - 15.8 1015.7 0.0
07/06:30pm ESE 3 4 - - - - - - - 17.3 1015.3 0.0
07/06:00pm ESE 4 5 - - - - - - - 21.1 1014.9 0.0
07/05:30pm ESE 4 6 - - - - - - - 24.4 1014.6 0.0
07/05:00pm E 7 10 - - - - - - - 26.2 1014.4 0.0
07/04:30pm ESE 9 15 - - - - - - - 26.7 1014.2 0.0
07/04:00pm ESE 7 11 - - - - - - - 27.4 1014.2 0.0
07/03:30pm ESE 7 15 - - - - - - - 27.7 1014.4 0.0
07/03:00pm E 8 14 - - - - - - - 27.8 1014.5 0.0
07/02:30pm E 9 15 - - - - - - - 27.8 1014.7 0.0
07/02:00pm ESE 9 14 - - - - - - - 27.2 1015.1 0.0
07/01:30pm ESE 8 17 - - - - - - - 27.4 1015.5 0.0
07/01:00pm ESE 8 17 - - - - - - - 26.9 1015.8 0.0
07/12:30pm ESE 9 15 - - - - - - - 26.4 1016.2 0.0
07/12:00pm E 10 17 - - - - - - - 25.9 1016.7 0.0
07/11:30am E 10 16 - - - - - - - 25.6 1017.0 0.0
07/11:00am E 10 18 - - - - - - - 24.5 1017.5 0.0
07/10:30am ESE 10 19 - - - - - - - 24.7 1017.8 0.0
07/10:00am ESE 13 21 - - - - - - - 23.4 1018.2 0.0
07/09:30am ESE 13 20 - - - - - - - 22.9 1018.4 0.0
07/09:00am ESE 12 21 - - - - - - - 22.0 1018.3 0.0
07/08:30am SE 12 19 - - - - - - - 19.7 1018.1 0.0
07/08:00am ESE 11 19 - - - - - - - 18.5 1017.7 0.0
07/07:30am SE 10 16 - - - - - - - 16.9 1017.1 0.0
07/07:00am SE 10 17 - - - - - - - 15.9 1016.6 0.0
07/06:30am SE 9 16 - - - - - - - 15.3 1016.2 0.0
07/06:00am SE 10 17 - - - - - - - 15.2 1015.3 0.0
07/05:30am SSE 9 14 - - - - - - - 14.6 1015.0 0.0
07/05:00am SSE 7 10 - - - - - - - 13.0 1015.0 0.0
07/04:30am SSE 7 10 - - - - - - - 11.9 1015.0 0.0
07/04:00am SSE 5 8 - - - - - - - 11.4 1015.2 0.0
07/03:30am SSE 7 9 - - - - - - - 11.2 1015.1 0.0
07/03:00am S 6 8 - - - - - - - 10.8 1014.9 0.0
07/02:30am SSE 6 8 - - - - - - - 11.4 1014.9 0.0
07/02:00am SSE 6 8 - - - - - - - 11.8 1014.9 0.0
07/01:30am SSE 5 7 - - - - - - - 11.4 1015.1 0.0
07/01:00am SSE 5 7 - - - - - - - 11.1 1015.4 0.0
07/12:30am SSE 5 6 - - - - - - - 11.0 1015.9 0.0
07/12:00am SSE 4 5 - - - - - - - 11.7 1015.9 0.0
 
Date/Time
WST
Wind Sea
Height
m
Swell Vis
km
Cloud Weather Temp
°C
Press
hPa
Rain since
9am
mm
Dir  Spd
kts
Gust
kts
Height
m
Period
s
Dir
06/11:30pm SSE 5 7 - - - - - - - 12.5 1016.0 0.0
06/11:00pm SE 4 6 - - - - - - - 13.3 1016.2 0.0
06/10:30pm SSE 6 7 - - - - - - - 13.7 1016.2 0.0
06/10:00pm SSE 6 8 - - - - - - - 14.4 1016.1 0.0
06/09:30pm SSE 6 9 - - - - - - - 14.6 1016.1 0.0
06/09:00pm SSE 6 8 - - - - - - - 15.6 1015.9 0.0

Other formats

Comma delimited format used in spreadsheet applications
http://www.bom.gov.au/fwo/IDW60701/IDW60701.94200.axf

JavaScript Object Notation format (JSON) in row-major order
http://www.bom.gov.au/fwo/IDW60701/IDW60701.94200.json

Data quality

Most of these data are generated automatically and are frequently updated. Quality checks on data are not normally performed. It is possible for incorrect values to appear. Refer to information at About Latest Weather Observations and please check the disclaimer before using these data.